sensor_id;sensor_type;location;lat;lon;timestamp;pressure;altitude;pressure_sealevel;temperature;humidity
20455;BME280;10386;54.314;10.022;2022-07-17T00:00:57;102386.34;;;11.47;100.00
20455;BME280;10386;54.314;10.022;2022-07-17T00:03:25;102386.13;;;11.51;100.00
20455;BME280;10386;54.314;10.022;2022-07-17T00:05:52;102376.31;;;11.47;100.00
20455;BME280;10386;54.314;10.022;2022-07-17T00:08:18;102375.34;;;11.31;100.00
20455;BME280;10386;54.314;10.022;2022-07-17T00:10:45;102376.56;;;11.43;100.00
20455;BME280;10386;54.314;10.022;2022-07-17T00:13:12;102382.22;;;11.38;100.00
20455;BME280;10386;54.314;10.022;2022-07-17T00:15:39;102379.00;;;11.30;100.00
20455;BME280;10386;54.314;10.022;2022-07-17T00:18:06;102379.44;;;11.40;100.00
20455;BME280;10386;54.314;10.022;2022-07-17T00:20:34;102376.06;;;11.35;100.00
20455;BME280;10386;54.314;10.022;2022-07-17T00:23:01;102376.06;;;11.35;100.00
20455;BME280;10386;54.314;10.022;2022-07-17T00:25:29;102372.41;;;11.36;100.00
20455;BME280;10386;54.314;10.022;2022-07-17T00:27:56;102372.88;;;11.27;100.00
20455;BME280;10386;54.314;10.022;2022-07-17T00:30:23;102376.25;;;11.13;100.00
20455;BME280;10386;54.314;10.022;2022-07-17T00:32:50;102378.44;;;11.24;100.00
20455;BME280;10386;54.314;10.022;2022-07-17T00:35:17;102375.44;;;11.30;100.00
20455;BME280;10386;54.314;10.022;2022-07-17T00:37:47;102371.59;;;11.34;100.00
20455;BME280;10386;54.314;10.022;2022-07-17T00:40:20;102364.16;;;11.37;100.00
20455;BME280;10386;54.314;10.022;2022-07-17T00:42:47;102359.03;;;11.31;100.00
20455;BME280;10386;54.314;10.022;2022-07-17T00:45:14;102360.44;;;11.21;100.00
20455;BME280;10386;54.314;10.022;2022-07-17T00:48:07;102365.81;;;11.04;100.00
20455;BME280;10386;54.314;10.022;2022-07-17T00:50:39;102357.63;;;11.06;100.00
20455;BME280;10386;54.314;10.022;2022-07-17T00:53:07;102360.69;;;10.98;100.00
20455;BME280;10386;54.314;10.022;2022-07-17T00:55:35;102359.78;;;10.98;100.00
20455;BME280;10386;54.314;10.022;2022-07-17T00:58:16;102345.41;;;10.96;100.00
20455;BME280;10386;54.314;10.022;2022-07-17T01:00:44;102351.50;;;11.01;100.00
20455;BME280;10386;54.314;10.022;2022-07-17T01:03:13;102343.63;;;10.95;100.00
20455;BME280;10386;54.314;10.022;2022-07-17T01:05:41;102334.16;;;11.03;100.00
20455;BME280;10386;54.314;10.022;2022-07-17T01:08:08;102325.81;;;11.08;100.00
20455;BME280;10386;54.314;10.022;2022-07-17T01:10:36;102321.31;;;11.07;100.00
20455;BME280;10386;54.314;10.022;2022-07-17T01:13:03;102323.22;;;11.05;100.00
20455;BME280;10386;54.314;10.022;2022-07-17T01:15:39;102327.63;;;11.07;100.00
20455;BME280;10386;54.314;10.022;2022-07-17T01:18:11;102326.03;;;11.03;100.00
20455;BME280;10386;54.314;10.022;2022-07-17T01:20:40;102320.44;;;11.06;100.00
20455;BME280;10386;54.314;10.022;2022-07-17T01:23:08;102317.78;;;11.05;100.00
20455;BME280;10386;54.314;10.022;2022-07-17T01:25:35;102310.56;;;11.04;100.00
20455;BME280;10386;54.314;10.022;2022-07-17T01:28:04;102304.88;;;11.10;100.00
20455;BME280;10386;54.314;10.022;2022-07-17T01:30:32;102304.72;;;11.13;100.00
20455;BME280;10386;54.314;10.022;2022-07-17T01:32:59;102297.88;;;11.04;100.00
20455;BME280;10386;54.314;10.022;2022-07-17T01:35:27;102299.81;;;11.02;100.00
20455;BME280;10386;54.314;10.022;2022-07-17T01:37:53;102299.81;;;11.02;100.00
20455;BME280;10386;54.314;10.022;2022-07-17T01:40:20;102288.72;;;11.07;100.00
20455;BME280;10386;54.314;10.022;2022-07-17T01:42:49;102280.47;;;11.08;100.00
20455;BME280;10386;54.314;10.022;2022-07-17T01:45:17;102270.53;;;11.07;100.00
20455;BME280;10386;54.314;10.022;2022-07-17T01:47:45;102275.78;;;11.12;100.00
20455;BME280;10386;54.314;10.022;2022-07-17T01:50:13;102270.97;;;11.17;100.00
20455;BME280;10386;54.314;10.022;2022-07-17T01:52:41;102271.28;;;11.11;100.00
20455;BME280;10386;54.314;10.022;2022-07-17T01:55:11;102281.09;;;11.13;100.00
20455;BME280;10386;54.314;10.022;2022-07-17T01:57:38;102262.66;;;11.20;100.00
20455;BME280;10386;54.314;10.022;2022-07-17T02:00:09;102261.72;;;11.21;100.00
20455;BME280;10386;54.314;10.022;2022-07-17T02:02:38;102266.56;;;11.31;100.00
20455;BME280;10386;54.314;10.022;2022-07-17T02:05:05;102261.22;;;11.30;100.00
20455;BME280;10386;54.314;10.022;2022-07-17T02:07:32;102253.88;;;11.32;100.00
20455;BME280;10386;54.314;10.022;2022-07-17T02:09:59;102263.00;;;11.31;100.00
20455;BME280;10386;54.314;10.022;2022-07-17T02:12:26;102263.00;;;11.31;100.00
20455;BME280;10386;54.314;10.022;2022-07-17T02:14:53;102265.72;;;11.31;100.00
20455;BME280;10386;54.314;10.022;2022-07-17T02:17:20;102257.94;;;11.23;100.00
20455;BME280;10386;54.314;10.022;2022-07-17T02:19:47;102263.22;;;11.26;100.00
20455;BME280;10386;54.314;10.022;2022-07-17T02:22:14;102259.84;;;11.21;100.00
20455;BME280;10386;54.314;10.022;2022-07-17T02:24:41;102262.34;;;11.26;100.00
20455;BME280;10386;54.314;10.022;2022-07-17T02:27:08;102259.78;;;11.23;100.00
20455;BME280;10386;54.314;10.022;2022-07-17T02:29:34;102256.97;;;11.24;100.00
20455;BME280;10386;54.314;10.022;2022-07-17T02:32:01;102249.56;;;11.28;100.00
20455;BME280;10386;54.314;10.022;2022-07-17T02:34:28;102247.81;;;11.27;100.00
20455;BME280;10386;54.314;10.022;2022-07-17T02:36:55;102244.97;;;11.28;100.00
20455;BME280;10386;54.314;10.022;2022-07-17T02:39:22;102241.78;;;11.37;100.00
20455;BME280;10386;54.314;10.022;2022-07-17T02:41:49;102235.22;;;11.41;100.00
20455;BME280;10386;54.314;10.022;2022-07-17T02:44:16;102234.91;;;11.47;100.00
20455;BME280;10386;54.314;10.022;2022-07-17T02:46:43;102224.59;;;11.54;100.00
20455;BME280;10386;54.314;10.022;2022-07-17T02:49:09;102231.81;;;11.55;100.00
20455;BME280;10386;54.314;10.022;2022-07-17T02:51:37;102238.44;;;11.49;100.00
20455;BME280;10386;54.314;10.022;2022-07-17T02:54:04;102236.69;;;11.48;100.00
20455;BME280;10386;54.314;10.022;2022-07-17T02:56:31;102233.88;;;11.50;100.00
20455;BME280;10386;54.314;10.022;2022-07-17T02:58:58;102222.41;;;11.43;100.00
20455;BME280;10386;54.314;10.022;2022-07-17T03:01:24;102220.59;;;11.44;100.00
20455;BME280;10386;54.314;10.022;2022-07-17T03:03:52;102220.50;;;11.45;100.00
20455;BME280;10386;54.314;10.022;2022-07-17T03:06:19;102234.09;;;11.45;100.00
20455;BME280;10386;54.314;10.022;2022-07-17T03:08:45;102223.16;;;11.47;100.00
20455;BME280;10386;54.314;10.022;2022-07-17T03:11:12;102218.91;;;11.41;100.00
20455;BME280;10386;54.314;10.022;2022-07-17T03:13:39;102215.31;;;11.41;100.00
20455;BME280;10386;54.314;10.022;2022-07-17T03:16:06;102208.19;;;11.38;100.00
20455;BME280;10386;54.314;10.022;2022-07-17T03:18:34;102205.31;;;11.41;100.00
20455;BME280;10386;54.314;10.022;2022-07-17T03:21:01;102203.66;;;11.39;100.00
20455;BME280;10386;54.314;10.022;2022-07-17T03:23:28;102202.75;;;11.38;100.00
20455;BME280;10386;54.314;10.022;2022-07-17T03:25:55;102199.97;;;11.40;100.00
20455;BME280;10386;54.314;10.022;2022-07-17T03:28:23;102205.31;;;11.41;100.00
20455;BME280;10386;54.314;10.022;2022-07-17T03:30:50;102204.19;;;11.45;100.00
20455;BME280;10386;54.314;10.022;2022-07-17T03:33:17;102203.16;;;11.48;100.00
20455;BME280;10386;54.314;10.022;2022-07-17T03:35:44;102197.88;;;11.45;100.00
20455;BME280;10386;54.314;10.022;2022-07-17T03:38:10;102205.09;;;11.46;100.00
20455;BME280;10386;54.314;10.022;2022-07-17T03:40:37;102208.13;;;11.57;100.00
20455;BME280;10386;54.314;10.022;2022-07-17T03:43:04;102207.13;;;11.59;100.00
20455;BME280;10386;54.314;10.022;2022-07-17T03:45:31;102203.72;;;11.71;100.00
20455;BME280;10386;54.314;10.022;2022-07-17T03:47:58;102193.19;;;11.81;100.00
20455;BME280;10386;54.314;10.022;2022-07-17T03:50:25;102204.25;;;11.95;100.00
20455;BME280;10386;54.314;10.022;2022-07-17T03:52:52;102195.09;;;11.96;100.00
20455;BME280;10386;54.314;10.022;2022-07-17T03:55:19;102186.44;;;12.05;100.00
20455;BME280;10386;54.314;10.022;2022-07-17T03:57:46;102193.63;;;12.06;100.00
20455;BME280;10386;54.314;10.022;2022-07-17T04:00:13;102194.25;;;12.11;100.00
20455;BME280;10386;54.314;10.022;2022-07-17T04:02:41;102191.34;;;12.14;100.00
20455;BME280;10386;54.314;10.022;2022-07-17T04:05:09;102191.09;;;12.18;100.00
20455;BME280;10386;54.314;10.022;2022-07-17T04:07:37;102187.22;;;12.22;100.00
20455;BME280;10386;54.314;10.022;2022-07-17T04:10:06;102188.63;;;12.29;100.00
20455;BME280;10386;54.314;10.022;2022-07-17T04:12:33;102184.25;;;12.27;100.00
20455;BME280;10386;54.314;10.022;2022-07-17T04:15:01;102187.94;;;12.26;100.00
20455;BME280;10386;54.314;10.022;2022-07-17T04:17:28;102187.16;;;12.24;100.00
20455;BME280;10386;54.314;10.022;2022-07-17T04:19:55;102181.59;;;12.25;100.00
20455;BME280;10386;54.314;10.022;2022-07-17T04:22:23;102189.59;;;12.28;100.00
20455;BME280;10386;54.314;10.022;2022-07-17T04:24:50;102186.81;;;12.30;100.00
20455;BME280;10386;54.314;10.022;2022-07-17T04:27:18;102190.25;;;12.33;100.00
20455;BME280;10386;54.314;10.022;2022-07-17T04:29:49;102189.28;;;12.34;100.00
20455;BME280;10386;54.314;10.022;2022-07-17T04:32:16;102183.31;;;12.43;100.00
20455;BME280;10386;54.314;10.022;2022-07-17T04:34:43;102162.56;;;12.56;100.00
20455;BME280;10386;54.314;10.022;2022-07-17T04:37:10;102161.91;;;12.66;100.00
20455;BME280;10386;54.314;10.022;2022-07-17T04:39:36;102171.16;;;12.79;100.00
20455;BME280;10386;54.314;10.022;2022-07-17T04:42:03;102179.41;;;12.93;100.00
20455;BME280;10386;54.314;10.022;2022-07-17T04:44:30;102187.91;;;13.03;100.00
20455;BME280;10386;54.314;10.022;2022-07-17T04:46:57;102196.38;;;12.98;100.00
20455;BME280;10386;54.314;10.022;2022-07-17T04:49:25;102208.94;;;13.01;100.00
20455;BME280;10386;54.314;10.022;2022-07-17T04:51:52;102218.00;;;13.01;100.00
20455;BME280;10386;54.314;10.022;2022-07-17T04:54:19;102213.34;;;13.03;100.00
20455;BME280;10386;54.314;10.022;2022-07-17T04:56:46;102217.03;;;13.02;100.00
20455;BME280;10386;54.314;10.022;2022-07-17T04:59:13;102231.81;;;12.98;100.00
20455;BME280;10386;54.314;10.022;2022-07-17T05:01:40;102234.53;;;12.98;100.00
20455;BME280;10386;54.314;10.022;2022-07-17T05:04:07;102231.44;;;13.04;100.00
20455;BME280;10386;54.314;10.022;2022-07-17T05:06:34;102245.94;;;13.05;100.00
20455;BME280;10386;54.314;10.022;2022-07-17T05:09:01;102249.19;;;13.11;100.00
20455;BME280;10386;54.314;10.022;2022-07-17T05:11:28;102246.97;;;13.18;100.00
20455;BME280;10386;54.314;10.022;2022-07-17T05:13:57;102251.19;;;13.23;100.00
20455;BME280;10386;54.314;10.022;2022-07-17T05:16:24;102251.00;;;13.26;100.00
20455;BME280;10386;54.314;10.022;2022-07-17T05:18:51;102248.47;;;13.23;100.00
20455;BME280;10386;54.314;10.022;2022-07-17T05:21:17;102243.97;;;13.22;100.00
20455;BME280;10386;54.314;10.022;2022-07-17T05:23:44;102246.63;;;13.24;100.00
20455;BME280;10386;54.314;10.022;2022-07-17T05:26:11;102253.38;;;13.32;100.00
20455;BME280;10386;54.314;10.022;2022-07-17T05:28:38;102248.13;;;13.43;100.00
20455;BME280;10386;54.314;10.022;2022-07-17T05:31:05;102243.22;;;13.50;100.00
20455;BME280;10386;54.314;10.022;2022-07-17T05:33:32;102249.25;;;13.55;100.00
20455;BME280;10386;54.314;10.022;2022-07-17T05:36:00;102244.31;;;13.61;100.00
20455;BME280;10386;54.314;10.022;2022-07-17T05:38:27;102246.78;;;13.79;100.00
20455;BME280;10386;54.314;10.022;2022-07-17T05:40:54;102250.50;;;13.92;100.00
20455;BME280;10386;54.314;10.022;2022-07-17T05:43:21;102262.13;;;14.10;100.00
20455;BME280;10386;54.314;10.022;2022-07-17T05:45:47;102261.38;;;14.36;100.00
20455;BME280;10386;54.314;10.022;2022-07-17T05:48:14;102255.78;;;14.65;100.00
20455;BME280;10386;54.314;10.022;2022-07-17T05:50:41;102259.50;;;14.64;100.00
20455;BME280;10386;54.314;10.022;2022-07-17T05:53:08;102274.16;;;14.49;100.00
20455;BME280;10386;54.314;10.022;2022-07-17T05:55:35;102280.09;;;14.42;100.00
20455;BME280;10386;54.314;10.022;2022-07-17T05:58:02;102273.16;;;14.64;100.00
20455;BME280;10386;54.314;10.022;2022-07-17T06:00:30;102277.16;;;14.73;100.00
20455;BME280;10386;54.314;10.022;2022-07-17T06:02:56;102293.38;;;14.62;100.00
20455;BME280;10386;54.314;10.022;2022-07-17T06:05:23;102301.69;;;14.46;100.00
20455;BME280;10386;54.314;10.022;2022-07-17T06:07:53;102310.19;;;14.56;100.00
20455;BME280;10386;54.314;10.022;2022-07-17T06:10:20;102312.38;;;14.77;100.00
20455;BME280;10386;54.314;10.022;2022-07-17T06:12:47;102309.19;;;14.71;100.00
20455;BME280;10386;54.314;10.022;2022-07-17T06:15:14;102316.34;;;15.00;100.00
20455;BME280;10386;54.314;10.022;2022-07-17T06:17:41;102326.03;;;15.05;100.00
20455;BME280;10386;54.314;10.022;2022-07-17T06:20:11;102331.75;;;15.15;100.00
20455;BME280;10386;54.314;10.022;2022-07-17T06:22:38;102349.34;;;15.38;100.00
20455;BME280;10386;54.314;10.022;2022-07-17T06:25:05;102364.44;;;15.44;100.00
20455;BME280;10386;54.314;10.022;2022-07-17T06:27:32;102367.13;;;15.58;100.00
20455;BME280;10386;54.314;10.022;2022-07-17T06:29:59;102378.72;;;15.75;100.00
20455;BME280;10386;54.314;10.022;2022-07-17T06:32:26;102392.25;;;16.55;100.00
20455;BME280;10386;54.314;10.022;2022-07-17T06:34:53;102403.06;;;17.67;100.00
20455;BME280;10386;54.314;10.022;2022-07-17T06:37:21;102431.25;;;18.28;100.00
20455;BME280;10386;54.314;10.022;2022-07-17T06:39:48;102459.06;;;18.36;100.00
20455;BME280;10386;54.314;10.022;2022-07-17T06:42:15;102485.25;;;18.63;100.00
20455;BME280;10386;54.314;10.022;2022-07-17T06:44:42;102497.94;;;18.42;100.00
20455;BME280;10386;54.314;10.022;2022-07-17T06:47:09;102497.41;;;18.61;100.00
20455;BME280;10386;54.314;10.022;2022-07-17T06:49:36;102504.75;;;17.42;100.00
20455;BME280;10386;54.314;10.022;2022-07-17T06:52:02;102513.72;;;17.69;100.00
20455;BME280;10386;54.314;10.022;2022-07-17T06:54:30;102510.66;;;18.20;100.00
20455;BME280;10386;54.314;10.022;2022-07-17T06:56:58;102513.22;;;17.87;100.00
20455;BME280;10386;54.314;10.022;2022-07-17T06:59:25;102510.47;;;18.81;100.00
20455;BME280;10386;54.314;10.022;2022-07-17T07:01:51;102506.16;;;18.31;100.00
20455;BME280;10386;54.314;10.022;2022-07-17T07:04:18;102515.16;;;18.57;100.00
20455;BME280;10386;54.314;10.022;2022-07-17T07:06:45;102512.50;;;17.73;100.00
20455;BME280;10386;54.314;10.022;2022-07-17T07:09:12;102526.59;;;17.18;100.00
20455;BME280;10386;54.314;10.022;2022-07-17T07:11:42;102537.19;;;17.98;100.00
20455;BME280;10386;54.314;10.022;2022-07-17T07:14:09;102533.28;;;18.12;100.00
20455;BME280;10386;54.314;10.022;2022-07-17T07:16:37;102544.59;;;18.08;100.00
20455;BME280;10386;54.314;10.022;2022-07-17T07:19:05;102534.75;;;17.45;100.00
20455;BME280;10386;54.314;10.022;2022-07-17T07:21:31;102553.53;;;17.99;100.00
20455;BME280;10386;54.314;10.022;2022-07-17T07:23:58;102534.66;;;17.95;100.00
20455;BME280;10386;54.314;10.022;2022-07-17T07:26:25;102532.72;;;18.43;100.00
20455;BME280;10386;54.314;10.022;2022-07-17T07:28:52;102540.75;;;18.57;100.00
20455;BME280;10386;54.314;10.022;2022-07-17T07:31:19;102530.94;;;18.42;100.00
20455;BME280;10386;54.314;10.022;2022-07-17T07:33:46;102526.81;;;18.37;100.00
20455;BME280;10386;54.314;10.022;2022-07-17T07:36:13;102549.47;;;18.05;100.00
20455;BME280;10386;54.314;10.022;2022-07-17T07:38:39;102554.50;;;17.37;100.00
20455;BME280;10386;54.314;10.022;2022-07-17T07:41:06;102578.88;;;17.92;100.00
20455;BME280;10386;54.314;10.022;2022-07-17T07:43:33;102570.94;;;18.35;100.00
20455;BME280;10386;54.314;10.022;2022-07-17T07:46:00;102553.16;;;18.16;100.00
20455;BME280;10386;54.314;10.022;2022-07-17T07:48:27;102561.72;;;18.47;100.00
20455;BME280;10386;54.314;10.022;2022-07-17T07:50:54;102550.72;;;18.47;100.00
20455;BME280;10386;54.314;10.022;2022-07-17T07:53:21;102549.53;;;18.62;100.00
20455;BME280;10386;54.314;10.022;2022-07-17T07:55:48;102546.03;;;18.60;100.00
20455;BME280;10386;54.314;10.022;2022-07-17T07:58:15;102545.81;;;18.04;100.00
20455;BME280;10386;54.314;10.022;2022-07-17T08:00:43;102550.81;;;18.22;100.00
20455;BME280;10386;54.314;10.022;2022-07-17T08:03:11;102560.97;;;18.45;100.00
20455;BME280;10386;54.314;10.022;2022-07-17T08:05:38;102554.09;;;18.40;100.00
20455;BME280;10386;54.314;10.022;2022-07-17T08:08:05;102550.47;;;17.91;100.00
20455;BME280;10386;54.314;10.022;2022-07-17T08:10:33;102556.13;;;18.13;100.00
20455;BME280;10386;54.314;10.022;2022-07-17T08:13:00;102562.25;;;18.76;100.00
20455;BME280;10386;54.314;10.022;2022-07-17T08:15:26;102544.09;;;18.39;100.00
20455;BME280;10386;54.314;10.022;2022-07-17T08:17:54;102563.91;;;18.55;100.00
20455;BME280;10386;54.314;10.022;2022-07-17T08:20:22;102534.09;;;18.72;100.00
20455;BME280;10386;54.314;10.022;2022-07-17T08:22:49;102527.63;;;18.84;100.00
20455;BME280;10386;54.314;10.022;2022-07-17T08:25:31;102531.63;;;18.80;100.00
20455;BME280;10386;54.314;10.022;2022-07-17T08:27:58;102538.00;;;19.26;100.00
20455;BME280;10386;54.314;10.022;2022-07-17T08:30:25;102530.75;;;19.25;100.00
20455;BME280;10386;54.314;10.022;2022-07-17T08:32:52;102515.00;;;19.60;100.00
20455;BME280;10386;54.314;10.022;2022-07-17T08:35:19;102521.97;;;19.31;100.00
20455;BME280;10386;54.314;10.022;2022-07-17T08:37:51;102532.41;;;19.50;100.00
20455;BME280;10386;54.314;10.022;2022-07-17T08:40:27;102521.34;;;19.17;100.00
20455;BME280;10386;54.314;10.022;2022-07-17T08:42:57;102535.78;;;19.64;100.00
20455;BME280;10386;54.314;10.022;2022-07-17T08:45:24;102500.06;;;19.52;100.00
20455;BME280;10386;54.314;10.022;2022-07-17T08:47:53;102506.22;;;19.66;100.00
20455;BME280;10386;54.314;10.022;2022-07-17T08:50:25;102511.84;;;19.32;100.00
20455;BME280;10386;54.314;10.022;2022-07-17T08:52:52;102526.44;;;19.10;100.00
20455;BME280;10386;54.314;10.022;2022-07-17T08:55:20;102540.16;;;19.34;100.00
20455;BME280;10386;54.314;10.022;2022-07-17T08:57:49;102526.97;;;19.92;100.00
20455;BME280;10386;54.314;10.022;2022-07-17T09:00:18;102513.56;;;20.09;100.00
20455;BME280;10386;54.314;10.022;2022-07-17T09:03:13;102484.97;;;19.88;100.00
20455;BME280;10386;54.314;10.022;2022-07-17T09:05:42;102512.66;;;20.20;100.00
20455;BME280;10386;54.314;10.022;2022-07-17T09:08:19;102503.31;;;20.00;100.00
20455;BME280;10386;54.314;10.022;2022-07-17T09:10:48;102505.94;;;19.80;100.00
20455;BME280;10386;54.314;10.022;2022-07-17T09:13:28;102538.94;;;20.35;100.00
20455;BME280;10386;54.314;10.022;2022-07-17T09:16:08;102494.69;;;19.72;100.00
20455;BME280;10386;54.314;10.022;2022-07-17T09:18:46;102549.31;;;19.56;100.00
20455;BME280;10386;54.314;10.022;2022-07-17T09:21:21;102561.56;;;19.85;100.00
20455;BME280;10386;54.314;10.022;2022-07-17T09:26:29;102527.34;;;20.20;100.00
20455;BME280;10386;54.314;10.022;2022-07-17T09:28:57;102512.69;;;20.09;100.00
20455;BME280;10386;54.314;10.022;2022-07-17T09:31:30;102525.34;;;20.11;100.00
20455;BME280;10386;54.314;10.022;2022-07-17T09:33:57;102524.16;;;20.25;100.00
20455;BME280;10386;54.314;10.022;2022-07-17T09:36:25;102523.22;;;20.78;100.00
20455;BME280;10386;54.314;10.022;2022-07-17T09:38:54;102490.72;;;19.96;100.00
20455;BME280;10386;54.314;10.022;2022-07-17T09:41:23;102517.44;;;19.96;100.00
20455;BME280;10386;54.314;10.022;2022-07-17T09:43:59;102520.34;;;20.48;100.00
20455;BME280;10386;54.314;10.022;2022-07-17T09:48:59;102491.31;;;21.05;100.00
20455;BME280;10386;54.314;10.022;2022-07-17T09:51:31;102480.44;;;21.33;100.00
20455;BME280;10386;54.314;10.022;2022-07-17T09:54:00;102489.50;;;20.63;100.00
20455;BME280;10386;54.314;10.022;2022-07-17T09:56:33;102536.91;;;20.68;100.00
20455;BME280;10386;54.314;10.022;2022-07-17T09:59:09;102520.72;;;21.15;100.00
20455;BME280;10386;54.314;10.022;2022-07-17T10:01:39;102516.78;;;20.88;100.00
20455;BME280;10386;54.314;10.022;2022-07-17T10:04:08;102541.41;;;20.49;100.00
20455;BME280;10386;54.314;10.022;2022-07-17T10:06:37;102527.69;;;20.16;100.00
20455;BME280;10386;54.314;10.022;2022-07-17T10:09:04;102553.47;;;20.37;100.00
20455;BME280;10386;54.314;10.022;2022-07-17T10:11:34;102538.00;;;20.03;100.00
20455;BME280;10386;54.314;10.022;2022-07-17T10:14:11;102532.34;;;19.93;100.00
20455;BME280;10386;54.314;10.022;2022-07-17T10:16:38;102559.69;;;19.74;100.00
20455;BME280;10386;54.314;10.022;2022-07-17T10:19:16;102589.34;;;20.48;100.00
20455;BME280;10386;54.314;10.022;2022-07-17T10:21:58;102552.22;;;21.03;100.00
20455;BME280;10386;54.314;10.022;2022-07-17T10:24:26;102534.34;;;21.07;100.00
20455;BME280;10386;54.314;10.022;2022-07-17T10:26:53;102543.66;;;21.57;100.00
20455;BME280;10386;54.314;10.022;2022-07-17T10:29:28;102520.78;;;21.75;100.00
20455;BME280;10386;54.314;10.022;2022-07-17T10:31:55;102466.47;;;21.35;100.00
20455;BME280;10386;54.314;10.022;2022-07-17T10:34:43;102469.72;;;20.27;100.00
20455;BME280;10386;54.314;10.022;2022-07-17T10:40:17;102550.34;;;20.73;100.00
20455;BME280;10386;54.314;10.022;2022-07-17T10:43:00;102541.84;;;20.33;100.00
20455;BME280;10386;54.314;10.022;2022-07-17T10:45:32;102511.53;;;20.54;100.00
20455;BME280;10386;54.314;10.022;2022-07-17T10:48:04;102515.44;;;20.83;100.00
20455;BME280;10386;54.314;10.022;2022-07-17T10:55:59;102499.03;;;22.01;100.00
20455;BME280;10386;54.314;10.022;2022-07-17T11:01:00;102532.56;;;20.66;100.00
20455;BME280;10386;54.314;10.022;2022-07-17T11:03:28;102539.94;;;20.65;100.00
20455;BME280;10386;54.314;10.022;2022-07-17T11:06:06;102529.22;;;20.51;100.00
20455;BME280;10386;54.314;10.022;2022-07-17T11:08:41;102527.56;;;20.60;100.00
20455;BME280;10386;54.314;10.022;2022-07-17T11:11:09;102516.09;;;20.44;100.00
20455;BME280;10386;54.314;10.022;2022-07-17T11:13:44;102565.88;;;21.46;100.00
20455;BME280;10386;54.314;10.022;2022-07-17T11:16:12;102549.41;;;22.04;100.00
20455;BME280;10386;54.314;10.022;2022-07-17T11:18:46;102490.22;;;21.67;100.00
20455;BME280;10386;54.314;10.022;2022-07-17T11:21:14;102472.75;;;21.16;100.00
20455;BME280;10386;54.314;10.022;2022-07-17T11:23:53;102525.41;;;21.65;100.00
20455;BME280;10386;54.314;10.022;2022-07-17T11:26:21;102489.22;;;21.48;100.00
20455;BME280;10386;54.314;10.022;2022-07-17T11:28:49;102508.03;;;21.93;100.00
20455;BME280;10386;54.314;10.022;2022-07-17T11:31:25;102466.09;;;21.88;100.00
20455;BME280;10386;54.314;10.022;2022-07-17T11:33:58;102473.84;;;22.04;100.00
20455;BME280;10386;54.314;10.022;2022-07-17T11:36:30;102499.13;;;21.50;100.00
20455;BME280;10386;54.314;10.022;2022-07-17T11:39:00;102488.28;;;21.38;100.00
20455;BME280;10386;54.314;10.022;2022-07-17T11:41:32;102520.38;;;21.80;100.00
20455;BME280;10386;54.314;10.022;2022-07-17T11:43:59;102483.59;;;21.98;100.00
20455;BME280;10386;54.314;10.022;2022-07-17T11:46:30;102492.22;;;22.05;100.00
20455;BME280;10386;54.314;10.022;2022-07-17T11:48:58;102498.97;;;21.52;100.00
20455;BME280;10386;54.314;10.022;2022-07-17T11:51:39;102494.16;;;21.44;100.00
20455;BME280;10386;54.314;10.022;2022-07-17T11:54:15;102482.53;;;21.20;100.00
20455;BME280;10386;54.314;10.022;2022-07-17T11:56:50;102495.22;;;20.82;100.00
20455;BME280;10386;54.314;10.022;2022-07-17T11:59:25;102566.22;;;22.22;100.00
20455;BME280;10386;54.314;10.022;2022-07-17T12:01:52;102517.75;;;21.48;100.00
20455;BME280;10386;54.314;10.022;2022-07-17T12:04:19;102541.16;;;20.72;100.00
20455;BME280;10386;54.314;10.022;2022-07-17T12:06:58;102578.34;;;20.99;100.00
20455;BME280;10386;54.314;10.022;2022-07-17T12:09:31;102550.81;;;21.09;100.00
20455;BME280;10386;54.314;10.022;2022-07-17T12:12:02;102563.63;;;20.79;100.00
20455;BME280;10386;54.314;10.022;2022-07-17T12:14:29;102581.91;;;20.91;100.00
20455;BME280;10386;54.314;10.022;2022-07-17T12:16:57;102546.88;;;21.11;100.00
20455;BME280;10386;54.314;10.022;2022-07-17T12:19:29;102579.84;;;21.24;100.00
20455;BME280;10386;54.314;10.022;2022-07-17T12:22:03;102592.69;;;21.55;100.00
20455;BME280;10386;54.314;10.022;2022-07-17T12:24:33;102578.22;;;21.62;100.00
20455;BME280;10386;54.314;10.022;2022-07-17T12:27:02;102562.13;;;21.06;100.00
20455;BME280;10386;54.314;10.022;2022-07-17T12:29:30;102572.16;;;20.87;100.00
20455;BME280;10386;54.314;10.022;2022-07-17T12:32:14;102574.91;;;20.87;100.00
20455;BME280;10386;54.314;10.022;2022-07-17T12:34:43;102573.97;;;20.97;100.00
20455;BME280;10386;54.314;10.022;2022-07-17T12:39:42;102586.16;;;21.56;100.00
20455;BME280;10386;54.314;10.022;2022-07-17T12:42:09;102595.28;;;21.26;100.00
20455;BME280;10386;54.314;10.022;2022-07-17T12:44:37;102589.53;;;21.18;100.00
20455;BME280;10386;54.314;10.022;2022-07-17T12:47:04;102602.97;;;21.23;100.00
20455;BME280;10386;54.314;10.022;2022-07-17T12:49:31;102626.63;;;21.77;100.00
20455;BME280;10386;54.314;10.022;2022-07-17T12:51:58;102573.25;;;21.86;100.00
20455;BME280;10386;54.314;10.022;2022-07-17T12:54:26;102558.75;;;21.43;100.00
20455;BME280;10386;54.314;10.022;2022-07-17T12:56:53;102580.72;;;21.24;100.00